sensor_id;sensor_type;location;lat;lon;timestamp;pressure;altitude;pressure_sealevel;temperature;humidity
54329;BME280;40710;51.120;13.136;2022-07-30T00:02:23;99324.16;;;23.56;63.42
54329;BME280;40710;51.120;13.136;2022-07-30T00:04:47;99330.53;;;23.63;63.57
54329;BME280;40710;51.120;13.136;2022-07-30T00:07:12;99329.81;;;23.36;64.06
54329;BME280;40710;51.120;13.136;2022-07-30T00:09:36;99335.47;;;23.17;65.18
54329;BME280;40710;51.120;13.136;2022-07-30T00:12:01;99311.91;;;23.45;64.21
54329;BME280;40710;51.120;13.136;2022-07-30T00:14:26;99330.09;;;23.09;65.31
54329;BME280;40710;51.120;13.136;2022-07-30T00:16:50;99326.59;;;23.16;65.51
54329;BME280;40710;51.120;13.136;2022-07-30T00:19:15;99309.19;;;23.20;65.06
54329;BME280;40710;51.120;13.136;2022-07-30T00:21:39;99321.88;;;23.10;65.52
54329;BME280;40710;51.120;13.136;2022-07-30T00:24:04;99323.16;;;22.98;66.27
54329;BME280;40710;51.120;13.136;2022-07-30T00:26:28;99308.47;;;23.10;64.96
54329;BME280;40710;51.120;13.136;2022-07-30T00:28:52;99318.38;;;22.75;67.19
54329;BME280;40710;51.120;13.136;2022-07-30T00:31:17;99304.13;;;23.09;66.02
54329;BME280;40710;51.120;13.136;2022-07-30T00:33:41;99308.94;;;22.97;66.35
54329;BME280;40710;51.120;13.136;2022-07-30T00:36:05;99325.16;;;22.96;66.96
54329;BME280;40710;51.120;13.136;2022-07-30T00:38:30;99290.84;;;23.91;62.69
54329;BME280;40710;51.120;13.136;2022-07-30T00:40:54;99311.88;;;23.29;64.53
54329;BME280;40710;51.120;13.136;2022-07-30T00:43:19;99321.53;;;23.05;65.53
54329;BME280;40710;51.120;13.136;2022-07-30T00:45:44;99309.06;;;23.79;61.99
54329;BME280;40710;51.120;13.136;2022-07-30T00:48:09;99327.34;;;22.58;66.68
54329;BME280;40710;51.120;13.136;2022-07-30T00:50:34;99320.13;;;22.93;66.33
54329;BME280;40710;51.120;13.136;2022-07-30T00:52:59;99315.28;;;23.80;65.78
54329;BME280;40710;51.120;13.136;2022-07-30T00:55:23;99321.09;;;23.26;65.22
54329;BME280;40710;51.120;13.136;2022-07-30T00:57:47;99324.81;;;22.91;66.07
54329;BME280;40710;51.120;13.136;2022-07-30T01:00:14;99325.47;;;22.84;66.57
54329;BME280;40710;51.120;13.136;2022-07-30T01:02:39;99320.44;;;22.81;66.80
54329;BME280;40710;51.120;13.136;2022-07-30T01:05:04;99318.75;;;22.80;67.03
54329;BME280;40710;51.120;13.136;2022-07-30T01:07:29;99299.22;;;24.52;66.14
54329;BME280;40710;51.120;13.136;2022-07-30T01:09:53;99272.88;;;25.50;60.56
54329;BME280;40710;51.120;13.136;2022-07-30T01:12:19;99308.22;;;23.38;64.20
54329;BME280;40710;51.120;13.136;2022-07-30T01:14:46;99298.66;;;23.44;64.15
54329;BME280;40710;51.120;13.136;2022-07-30T01:17:12;99324.22;;;23.05;66.29
54329;BME280;40710;51.120;13.136;2022-07-30T01:19:38;99294.81;;;23.63;63.06
54329;BME280;40710;51.120;13.136;2022-07-30T01:22:34;99306.81;;;23.09;65.48
54329;BME280;40710;51.120;13.136;2022-07-30T01:27:28;99314.88;;;22.75;66.98
54329;BME280;40710;51.120;13.136;2022-07-30T01:29:55;99310.69;;;22.72;67.31
54329;BME280;40710;51.120;13.136;2022-07-30T01:32:22;99318.38;;;22.67;67.42
54329;BME280;40710;51.120;13.136;2022-07-30T01:34:48;99318.25;;;22.42;68.19
54329;BME280;40710;51.120;13.136;2022-07-30T01:37:14;99315.03;;;22.73;67.03
54329;BME280;40710;51.120;13.136;2022-07-30T01:39:40;99316.03;;;22.72;67.44
54329;BME280;40710;51.120;13.136;2022-07-30T01:42:05;99312.63;;;23.04;65.80
54329;BME280;40710;51.120;13.136;2022-07-30T01:44:32;99314.59;;;23.70;65.87
54329;BME280;40710;51.120;13.136;2022-07-30T01:46:58;99332.50;;;22.85;66.64
54329;BME280;40710;51.120;13.136;2022-07-30T01:49:24;99351.94;;;22.53;67.98
54329;BME280;40710;51.120;13.136;2022-07-30T01:51:51;99347.13;;;22.65;67.10
54329;BME280;40710;51.120;13.136;2022-07-30T01:54:18;99345.66;;;23.05;65.44
54329;BME280;40710;51.120;13.136;2022-07-30T01:56:44;99341.69;;;22.49;67.34
54329;BME280;40710;51.120;13.136;2022-07-30T01:59:11;99290.16;;;25.24;62.89
54329;BME280;40710;51.120;13.136;2022-07-30T02:01:37;99266.06;;;26.15;58.38
54329;BME280;40710;51.120;13.136;2022-07-30T02:04:02;99319.53;;;22.38;68.46
54329;BME280;40710;51.120;13.136;2022-07-30T02:06:33;99299.94;;;22.64;67.79
54329;BME280;40710;51.120;13.136;2022-07-30T02:09:02;99294.00;;;22.52;67.75
54329;BME280;40710;51.120;13.136;2022-07-30T02:11:27;99306.09;;;22.56;67.91
54329;BME280;40710;51.120;13.136;2022-07-30T02:14:17;99321.91;;;22.41;68.25
54329;BME280;40710;51.120;13.136;2022-07-30T02:16:48;99319.97;;;22.52;68.30
54329;BME280;40710;51.120;13.136;2022-07-30T02:19:15;99317.94;;;22.54;68.54
54329;BME280;40710;51.120;13.136;2022-07-30T02:21:43;99280.56;;;23.78;62.11
54329;BME280;40710;51.120;13.136;2022-07-30T02:24:14;99317.53;;;22.40;67.82
54329;BME280;40710;51.120;13.136;2022-07-30T02:29:05;99308.34;;;22.43;68.22
54329;BME280;40710;51.120;13.136;2022-07-30T02:31:30;99292.09;;;22.71;66.21
54329;BME280;40710;51.120;13.136;2022-07-30T02:33:59;99252.59;;;26.45;60.51
54329;BME280;40710;51.120;13.136;2022-07-30T02:36:26;99260.50;;;26.02;61.09
54329;BME280;40710;51.120;13.136;2022-07-30T02:38:51;99252.16;;;25.74;59.75
54329;BME280;40710;51.120;13.136;2022-07-30T02:41:16;99242.31;;;24.97;56.80
54329;BME280;40710;51.120;13.136;2022-07-30T02:43:42;99239.53;;;25.74;58.01
54329;BME280;40710;51.120;13.136;2022-07-30T02:46:08;99244.16;;;24.09;58.88
54329;BME280;40710;51.120;13.136;2022-07-30T02:48:37;99259.94;;;23.46;61.33
54329;BME280;40710;51.120;13.136;2022-07-30T02:51:04;99222.94;;;27.33;53.90
54329;BME280;40710;51.120;13.136;2022-07-30T02:53:31;99245.50;;;27.10;56.11
54329;BME280;40710;51.120;13.136;2022-07-30T02:55:58;99255.56;;;26.50;57.52
54329;BME280;40710;51.120;13.136;2022-07-30T02:58:24;99284.06;;;23.38;61.18
54329;BME280;40710;51.120;13.136;2022-07-30T03:00:51;99263.22;;;26.32;59.37
54329;BME280;40710;51.120;13.136;2022-07-30T03:03:17;99249.28;;;25.98;52.31
54329;BME280;40710;51.120;13.136;2022-07-30T03:05:41;99272.16;;;24.06;58.70
54329;BME280;40710;51.120;13.136;2022-07-30T03:08:06;99278.84;;;23.12;63.12
54329;BME280;40710;51.120;13.136;2022-07-30T03:10:32;99256.91;;;25.25;61.36
54329;BME280;40710;51.120;13.136;2022-07-30T03:12:57;99246.00;;;26.03;53.92
54329;BME280;40710;51.120;13.136;2022-07-30T03:15:24;99261.44;;;26.24;59.09
54329;BME280;40710;51.120;13.136;2022-07-30T03:17:52;99251.78;;;26.30;54.29
54329;BME280;40710;51.120;13.136;2022-07-30T03:20:19;99305.50;;;22.79;63.99
54329;BME280;40710;51.120;13.136;2022-07-30T03:22:50;99264.88;;;25.80;60.26
54329;BME280;40710;51.120;13.136;2022-07-30T03:25:18;99253.91;;;26.79;56.21
54329;BME280;40710;51.120;13.136;2022-07-30T03:27:43;99244.06;;;26.56;53.03
54329;BME280;40710;51.120;13.136;2022-07-30T03:30:09;99248.81;;;25.95;52.27
54329;BME280;40710;51.120;13.136;2022-07-30T03:32:34;99281.22;;;25.09;61.50
54329;BME280;40710;51.120;13.136;2022-07-30T03:35:00;99242.94;;;27.39;56.34
54329;BME280;40710;51.120;13.136;2022-07-30T03:37:25;99221.81;;;28.82;49.93
54329;BME280;40710;51.120;13.136;2022-07-30T03:39:50;99251.75;;;27.11;55.17
54329;BME280;40710;51.120;13.136;2022-07-30T03:42:15;99274.56;;;24.49;58.14
54329;BME280;40710;51.120;13.136;2022-07-30T03:44:39;99261.13;;;24.97;55.29
54329;BME280;40710;51.120;13.136;2022-07-30T03:47:05;99241.81;;;28.04;51.40
54329;BME280;40710;51.120;13.136;2022-07-30T03:49:32;99307.53;;;23.52;61.72
54329;BME280;40710;51.120;13.136;2022-07-30T03:51:56;99274.22;;;24.52;56.35
54329;BME280;40710;51.120;13.136;2022-07-30T03:54:21;99245.78;;;27.15;52.45
54329;BME280;40710;51.120;13.136;2022-07-30T03:56:46;99260.56;;;25.01;55.32
54329;BME280;40710;51.120;13.136;2022-07-30T03:59:12;99221.88;;;28.95;48.66
54329;BME280;40710;51.120;13.136;2022-07-30T04:01:36;99274.03;;;26.09;56.34
54329;BME280;40710;51.120;13.136;2022-07-30T04:04:06;99309.81;;;22.63;63.43
54329;BME280;40710;51.120;13.136;2022-07-30T04:06:31;99304.44;;;24.62;61.33
54329;BME280;40710;51.120;13.136;2022-07-30T04:08:55;99265.44;;;26.28;53.95
54329;BME280;40710;51.120;13.136;2022-07-30T04:11:20;99240.91;;;28.25;50.45
54329;BME280;40710;51.120;13.136;2022-07-30T04:13:44;99258.97;;;27.25;54.29
54329;BME280;40710;51.120;13.136;2022-07-30T04:16:13;99252.91;;;27.88;51.94
54329;BME280;40710;51.120;13.136;2022-07-30T04:18:44;99299.00;;;25.10;63.08
54329;BME280;40710;51.120;13.136;2022-07-30T04:21:13;99263.75;;;27.08;55.05
54329;BME280;40710;51.120;13.136;2022-07-30T04:23:39;99257.00;;;27.84;52.13
54329;BME280;40710;51.120;13.136;2022-07-30T04:26:03;99305.53;;;23.63;59.69
54329;BME280;40710;51.120;13.136;2022-07-30T04:28:28;99303.34;;;24.32;63.44
54329;BME280;40710;51.120;13.136;2022-07-30T04:30:53;99317.38;;;22.42;65.24
54329;BME280;40710;51.120;13.136;2022-07-30T04:33:18;99298.66;;;23.27;61.47
54329;BME280;40710;51.120;13.136;2022-07-30T04:35:42;99331.00;;;23.34;65.91
54329;BME280;40710;51.120;13.136;2022-07-30T04:38:06;99274.50;;;27.23;55.58
54329;BME280;40710;51.120;13.136;2022-07-30T04:40:33;99325.78;;;23.24;62.02
54329;BME280;40710;51.120;13.136;2022-07-30T04:42:57;99275.88;;;27.77;52.93
54329;BME280;40710;51.120;13.136;2022-07-30T04:45:22;99322.66;;;23.53;59.32
54329;BME280;40710;51.120;13.136;2022-07-30T04:47:47;99299.47;;;25.45;55.30
54329;BME280;40710;51.120;13.136;2022-07-30T04:50:12;99328.19;;;23.52;60.42
54329;BME280;40710;51.120;13.136;2022-07-30T04:52:37;99305.34;;;25.95;59.44
54329;BME280;40710;51.120;13.136;2022-07-30T04:55:04;99300.66;;;25.19;55.91
54329;BME280;40710;51.120;13.136;2022-07-30T04:57:30;99290.00;;;27.00;54.44
54329;BME280;40710;51.120;13.136;2022-07-30T04:59:55;99337.88;;;22.94;64.17
54329;BME280;40710;51.120;13.136;2022-07-30T05:02:21;99349.22;;;22.01;66.15
54329;BME280;40710;51.120;13.136;2022-07-30T05:04:47;99342.59;;;22.31;64.64
54329;BME280;40710;51.120;13.136;2022-07-30T05:07:12;99263.69;;;27.88;52.86
54329;BME280;40710;51.120;13.136;2022-07-30T05:09:38;99299.38;;;24.76;55.19
54329;BME280;40710;51.120;13.136;2022-07-30T05:12:02;99263.59;;;28.31;50.65
54329;BME280;40710;51.120;13.136;2022-07-30T05:14:27;99292.75;;;25.18;55.86
54329;BME280;40710;51.120;13.136;2022-07-30T05:16:52;99295.16;;;26.35;57.60
54329;BME280;40710;51.120;13.136;2022-07-30T05:19:19;99282.25;;;24.68;53.97
54329;BME280;40710;51.120;13.136;2022-07-30T05:21:44;99338.63;;;22.17;63.90
54329;BME280;40710;51.120;13.136;2022-07-30T05:24:08;99313.44;;;23.48;60.42
54329;BME280;40710;51.120;13.136;2022-07-30T05:26:33;99284.19;;;26.21;56.05
54329;BME280;40710;51.120;13.136;2022-07-30T05:28:57;99316.22;;;23.30;61.57
54329;BME280;40710;51.120;13.136;2022-07-30T05:31:21;99276.41;;;26.71;55.93
54329;BME280;40710;51.120;13.136;2022-07-30T05:33:46;99285.66;;;24.54;56.82
54329;BME280;40710;51.120;13.136;2022-07-30T05:36:10;99290.50;;;25.99;57.45
54329;BME280;40710;51.120;13.136;2022-07-30T05:38:35;99295.50;;;23.97;59.34
54329;BME280;40710;51.120;13.136;2022-07-30T05:40:59;99272.41;;;26.67;56.75
54329;BME280;40710;51.120;13.136;2022-07-30T05:43:23;99284.41;;;26.65;57.68
54329;BME280;40710;51.120;13.136;2022-07-30T05:45:48;99321.13;;;22.92;62.68
54329;BME280;40710;51.120;13.136;2022-07-30T05:48:12;99302.19;;;23.77;61.20
54329;BME280;40710;51.120;13.136;2022-07-30T05:50:37;99311.25;;;23.59;61.72
54329;BME280;40710;51.120;13.136;2022-07-30T05:53:01;99268.06;;;27.24;54.71
54329;BME280;40710;51.120;13.136;2022-07-30T05:55:26;99302.53;;;24.07;58.68
54329;BME280;40710;51.120;13.136;2022-07-30T05:57:50;99263.19;;;27.78;52.64
54329;BME280;40710;51.120;13.136;2022-07-30T06:00:15;99313.41;;;23.39;61.60
54329;BME280;40710;51.120;13.136;2022-07-30T06:02:39;99298.31;;;25.16;61.33
54329;BME280;40710;51.120;13.136;2022-07-30T06:05:04;99273.16;;;26.76;56.29
54329;BME280;40710;51.120;13.136;2022-07-30T06:07:28;99309.91;;;23.80;59.96
54329;BME280;40710;51.120;13.136;2022-07-30T06:09:52;99302.44;;;24.48;58.64
54329;BME280;40710;51.120;13.136;2022-07-30T06:12:17;99290.53;;;27.10;56.03
54329;BME280;40710;51.120;13.136;2022-07-30T06:14:42;99304.59;;;24.61;56.76
54329;BME280;40710;51.120;13.136;2022-07-30T06:17:06;99315.88;;;23.16;62.45
54329;BME280;40710;51.120;13.136;2022-07-30T06:19:31;99320.53;;;23.06;63.03
54329;BME280;40710;51.120;13.136;2022-07-30T06:21:55;99312.91;;;23.52;61.50
54329;BME280;40710;51.120;13.136;2022-07-30T06:24:20;99320.28;;;23.34;61.47
54329;BME280;40710;51.120;13.136;2022-07-30T06:26:44;99320.59;;;23.31;62.43
54329;BME280;40710;51.120;13.136;2022-07-30T06:29:08;99296.53;;;26.01;58.29
54329;BME280;40710;51.120;13.136;2022-07-30T06:31:33;99312.09;;;25.67;61.29
54329;BME280;40710;51.120;13.136;2022-07-30T06:33:57;99307.97;;;25.80;58.53
54329;BME280;40710;51.120;13.136;2022-07-30T06:36:21;99320.22;;;24.49;57.19
54329;BME280;40710;51.120;13.136;2022-07-30T06:38:46;99303.56;;;27.21;53.78
54329;BME280;40710;51.120;13.136;2022-07-30T06:41:10;99339.25;;;23.57;60.77
54329;BME280;40710;51.120;13.136;2022-07-30T06:43:35;99314.84;;;24.65;56.34
54329;BME280;40710;51.120;13.136;2022-07-30T06:46:00;99327.78;;;25.01;60.39
54329;BME280;40710;51.120;13.136;2022-07-30T06:48:24;99314.28;;;24.78;56.13
54329;BME280;40710;51.120;13.136;2022-07-30T06:50:49;99343.63;;;23.58;60.28
54329;BME280;40710;51.120;13.136;2022-07-30T06:53:13;99335.06;;;23.71;60.54
54329;BME280;40710;51.120;13.136;2022-07-30T06:55:38;99335.75;;;24.14;59.31
54329;BME280;40710;51.120;13.136;2022-07-30T06:58:02;99375.66;;;22.74;64.06
54329;BME280;40710;51.120;13.136;2022-07-30T07:00:27;99325.00;;;26.93;55.04
54329;BME280;40710;51.120;13.136;2022-07-30T07:02:51;99312.00;;;27.54;52.37
54329;BME280;40710;51.120;13.136;2022-07-30T07:05:15;99319.13;;;28.05;50.83
54329;BME280;40710;51.120;13.136;2022-07-30T07:07:40;99313.81;;;28.19;49.87
54329;BME280;40710;51.120;13.136;2022-07-30T07:10:05;99344.50;;;27.10;52.90
54329;BME280;40710;51.120;13.136;2022-07-30T07:12:29;99345.72;;;26.92;53.31
54329;BME280;40710;51.120;13.136;2022-07-30T07:14:54;99401.63;;;23.08;63.49
54329;BME280;40710;51.120;13.136;2022-07-30T07:17:18;99369.03;;;24.77;56.82
54329;BME280;40710;51.120;13.136;2022-07-30T07:19:42;99341.13;;;28.31;50.75
54329;BME280;40710;51.120;13.136;2022-07-30T07:22:07;99396.53;;;23.39;60.62
54329;BME280;40710;51.120;13.136;2022-07-30T07:24:32;99410.88;;;22.61;64.39
54329;BME280;40710;51.120;13.136;2022-07-30T07:26:56;99409.91;;;22.62;65.00
54329;BME280;40710;51.120;13.136;2022-07-30T07:29:20;99361.91;;;25.01;57.19
54329;BME280;40710;51.120;13.136;2022-07-30T07:31:45;99358.88;;;26.28;58.74
54329;BME280;40710;51.120;13.136;2022-07-30T07:34:09;99354.88;;;25.31;53.81
54329;BME280;40710;51.120;13.136;2022-07-30T07:36:33;99358.34;;;26.47;57.41
54329;BME280;40710;51.120;13.136;2022-07-30T07:38:59;99335.22;;;27.92;51.82
54329;BME280;40710;51.120;13.136;2022-07-30T07:41:24;99335.91;;;27.79;51.74
54329;BME280;40710;51.120;13.136;2022-07-30T07:43:49;99322.16;;;28.94;48.59
54329;BME280;40710;51.120;13.136;2022-07-30T07:46:13;99332.75;;;28.54;49.25
54329;BME280;40710;51.120;13.136;2022-07-30T07:48:40;99338.75;;;28.14;49.86
54329;BME280;40710;51.120;13.136;2022-07-30T07:51:05;99348.38;;;27.22;52.65
54329;BME280;40710;51.120;13.136;2022-07-30T07:53:29;99345.09;;;27.42;51.95
54329;BME280;40710;51.120;13.136;2022-07-30T07:55:53;99405.25;;;23.41;61.74
54329;BME280;40710;51.120;13.136;2022-07-30T07:58:18;99381.53;;;25.09;62.35
54329;BME280;40710;51.120;13.136;2022-07-30T08:00:42;99344.91;;;26.92;54.64
54329;BME280;40710;51.120;13.136;2022-07-30T08:03:07;99371.16;;;24.34;57.56
54329;BME280;40710;51.120;13.136;2022-07-30T08:05:31;99346.63;;;27.14;53.04
54329;BME280;40710;51.120;13.136;2022-07-30T08:07:56;99391.97;;;23.91;59.74
54329;BME280;40710;51.120;13.136;2022-07-30T08:10:20;99406.44;;;23.47;62.22
54329;BME280;40710;51.120;13.136;2022-07-30T08:12:44;99390.19;;;24.88;59.01
54329;BME280;40710;51.120;13.136;2022-07-30T08:15:09;99366.00;;;26.88;53.32
54329;BME280;40710;51.120;13.136;2022-07-30T08:17:42;99388.63;;;23.97;58.89
54329;BME280;40710;51.120;13.136;2022-07-30T08:20:08;99378.41;;;25.83;57.96
54329;BME280;40710;51.120;13.136;2022-07-30T08:22:32;99389.13;;;24.33;56.75
54329;BME280;40710;51.120;13.136;2022-07-30T08:24:57;99358.72;;;27.55;51.67
54329;BME280;40710;51.120;13.136;2022-07-30T08:27:21;99387.59;;;24.31;56.62
54329;BME280;40710;51.120;13.136;2022-07-30T08:29:45;99403.94;;;25.02;61.18
54329;BME280;40710;51.120;13.136;2022-07-30T08:32:10;99406.34;;;23.65;60.31
54329;BME280;40710;51.120;13.136;2022-07-30T08:34:34;99409.34;;;23.11;61.39
54329;BME280;40710;51.120;13.136;2022-07-30T08:36:58;99406.63;;;23.54;60.53
54329;BME280;40710;51.120;13.136;2022-07-30T08:39:23;99386.22;;;25.47;58.33
54329;BME280;40710;51.120;13.136;2022-07-30T08:41:47;99413.47;;;23.32;60.53
54329;BME280;40710;51.120;13.136;2022-07-30T08:44:12;99385.81;;;26.13;56.39
54329;BME280;40710;51.120;13.136;2022-07-30T08:46:42;99420.44;;;22.90;61.51
54329;BME280;40710;51.120;13.136;2022-07-30T08:49:06;99412.84;;;23.54;59.43
54329;BME280;40710;51.120;13.136;2022-07-30T08:51:31;99431.28;;;23.49;63.55
54329;BME280;40710;51.120;13.136;2022-07-30T08:53:57;99438.22;;;22.39;63.89
54329;BME280;40710;51.120;13.136;2022-07-30T08:56:21;99445.56;;;23.15;63.43
54329;BME280;40710;51.120;13.136;2022-07-30T08:58:46;99417.47;;;24.69;60.94
54329;BME280;40710;51.120;13.136;2022-07-30T09:01:10;99437.19;;;22.92;62.66
54329;BME280;40710;51.120;13.136;2022-07-30T09:03:36;99386.78;;;26.50;54.29
54329;BME280;40710;51.120;13.136;2022-07-30T09:06:02;99428.28;;;23.10;59.35
54329;BME280;40710;51.120;13.136;2022-07-30T09:08:26;99418.31;;;24.04;61.44
54329;BME280;40710;51.120;13.136;2022-07-30T09:10:51;99431.00;;;22.39;61.93
54329;BME280;40710;51.120;13.136;2022-07-30T09:15:46;99455.81;;;21.32;67.56
54329;BME280;40710;51.120;13.136;2022-07-30T09:18:10;99426.72;;;22.46;61.52
54329;BME280;40710;51.120;13.136;2022-07-30T09:20:35;99448.53;;;21.80;67.08
54329;BME280;40710;51.120;13.136;2022-07-30T09:23:02;99456.00;;;21.58;67.43
54329;BME280;40710;51.120;13.136;2022-07-30T09:25:38;99454.00;;;21.60;66.70
54329;BME280;40710;51.120;13.136;2022-07-30T09:28:04;99454.28;;;21.57;67.34
54329;BME280;40710;51.120;13.136;2022-07-30T09:30:49;99391.84;;;26.15;58.66
54329;BME280;40710;51.120;13.136;2022-07-30T09:33:40;99388.88;;;25.16;55.79
54329;BME280;40710;51.120;13.136;2022-07-30T09:36:09;99441.50;;;22.15;65.48
54329;BME280;40710;51.120;13.136;2022-07-30T09:38:51;99451.06;;;21.99;66.81
54329;BME280;40710;51.120;13.136;2022-07-30T09:41:18;99407.13;;;24.89;58.60
54329;BME280;40710;51.120;13.136;2022-07-30T09:43:53;99413.28;;;25.14;57.06
54329;BME280;40710;51.120;13.136;2022-07-30T09:46:17;99400.22;;;25.42;56.60
54329;BME280;40710;51.120;13.136;2022-07-30T09:48:42;99396.34;;;25.99;54.87
54329;BME280;40710;51.120;13.136;2022-07-30T09:51:08;99396.13;;;25.78;55.75
54329;BME280;40710;51.120;13.136;2022-07-30T09:53:33;99396.88;;;26.18;53.92
54329;BME280;40710;51.120;13.136;2022-07-30T09:55:58;99407.41;;;26.04;54.75
54329;BME280;40710;51.120;13.136;2022-07-30T09:58:22;99396.44;;;26.06;55.02
54329;BME280;40710;51.120;13.136;2022-07-30T10:00:46;99403.53;;;25.53;55.73
54329;BME280;40710;51.120;13.136;2022-07-30T10:03:20;99419.75;;;24.97;57.10
54329;BME280;40710;51.120;13.136;2022-07-30T10:05:59;99440.91;;;23.76;61.67
54329;BME280;40710;51.120;13.136;2022-07-30T10:11:03;99465.00;;;21.57;68.36
54329;BME280;40710;51.120;13.136;2022-07-30T10:13:28;99450.72;;;22.20;65.00
54329;BME280;40710;51.120;13.136;2022-07-30T10:15:52;99443.75;;;22.90;63.35
54329;BME280;40710;51.120;13.136;2022-07-30T10:18:17;99449.88;;;23.08;62.21
54329;BME280;40710;51.120;13.136;2022-07-30T10:20:42;99457.06;;;22.19;65.31
54329;BME280;40710;51.120;13.136;2022-07-30T10:23:06;99466.25;;;22.17;66.76
54329;BME280;40710;51.120;13.136;2022-07-30T10:25:32;99466.81;;;22.02;66.58
54329;BME280;40710;51.120;13.136;2022-07-30T10:27:58;99446.97;;;23.87;62.86
54329;BME280;40710;51.120;13.136;2022-07-30T10:30:23;99476.34;;;21.87;67.29
54329;BME280;40710;51.120;13.136;2022-07-30T10:32:48;99482.38;;;21.33;68.20
54329;BME280;40710;51.120;13.136;2022-07-30T10:35:13;99436.94;;;24.38;60.94
54329;BME280;40710;51.120;13.136;2022-07-30T10:37:40;99463.44;;;22.00;66.13
54329;BME280;40710;51.120;13.136;2022-07-30T10:40:19;99477.25;;;21.78;68.10
54329;BME280;40710;51.120;13.136;2022-07-30T10:43:27;99476.72;;;21.74;68.42
54329;BME280;40710;51.120;13.136;2022-07-30T10:46:05;99478.47;;;21.65;68.70
54329;BME280;40710;51.120;13.136;2022-07-30T10:48:32;99467.72;;;22.11;67.78
54329;BME280;40710;51.120;13.136;2022-07-30T10:50:57;99477.00;;;21.71;68.27
54329;BME280;40710;51.120;13.136;2022-07-30T10:56:18;99428.38;;;24.43;60.89
54329;BME280;40710;51.120;13.136;2022-07-30T10:59:05;99424.03;;;25.14;58.53
54329;BME280;40710;51.120;13.136;2022-07-30T11:04:22;99426.84;;;25.21;57.78
54329;BME280;40710;51.120;13.136;2022-07-30T11:06:48;99424.56;;;25.09;58.42
54329;BME280;40710;51.120;13.136;2022-07-30T11:09:39;99431.50;;;24.87;58.99
54329;BME280;40710;51.120;13.136;2022-07-30T11:12:04;99430.28;;;25.06;58.75
54329;BME280;40710;51.120;13.136;2022-07-30T11:17:09;99451.69;;;23.85;61.28
54329;BME280;40710;51.120;13.136;2022-07-30T11:19:33;99472.16;;;22.38;66.48
54329;BME280;40710;51.120;13.136;2022-07-30T11:22:24;99466.88;;;22.46;65.77
54329;BME280;40710;51.120;13.136;2022-07-30T11:24:49;99474.28;;;22.53;66.54
54329;BME280;40710;51.120;13.136;2022-07-30T11:27:36;99466.75;;;23.00;64.46
54329;BME280;40710;51.120;13.136;2022-07-30T11:30:04;99465.16;;;22.63;65.01
54329;BME280;40710;51.120;13.136;2022-07-30T11:32:32;99463.31;;;22.64;65.03
54329;BME280;40710;51.120;13.136;2022-07-30T11:35:20;99465.78;;;22.57;66.20
54329;BME280;40710;51.120;13.136;2022-07-30T11:38:05;99468.25;;;23.03;64.39
54329;BME280;40710;51.120;13.136;2022-07-30T11:43:23;99467.16;;;22.88;64.24
54329;BME280;40710;51.120;13.136;2022-07-30T11:45:51;99469.72;;;22.71;64.50
54329;BME280;40710;51.120;13.136;2022-07-30T11:48:17;99456.06;;;22.82;64.27
54329;BME280;40710;51.120;13.136;2022-07-30T11:50:43;99466.53;;;22.94;64.28
54329;BME280;40710;51.120;13.136;2022-07-30T11:53:10;99461.84;;;23.22;63.82
54329;BME280;40710;51.120;13.136;2022-07-30T11:55:38;99461.63;;;23.15;63.71
54329;BME280;40710;51.120;13.136;2022-07-30T12:00:41;99422.56;;;25.74;56.01
54329;BME280;40710;51.120;13.136;2022-07-30T12:03:13;99420.81;;;26.13;55.01
54329;BME280;40710;51.120;13.136;2022-07-30T12:05:39;99431.91;;;25.87;55.29
54329;BME280;40710;51.120;13.136;2022-07-30T12:08:05;99453.56;;;24.42;58.93
54329;BME280;40710;51.120;13.136;2022-07-30T12:10:30;99419.06;;;26.58;54.61
54329;BME280;40710;51.120;13.136;2022-07-30T12:13:11;99438.84;;;26.12;55.30
54329;BME280;40710;51.120;13.136;2022-07-30T12:15:42;99433.84;;;26.01;55.49
54329;BME280;40710;51.120;13.136;2022-07-30T12:18:07;99431.19;;;26.39;54.96
54329;BME280;40710;51.120;13.136;2022-07-30T12:20:34;99433.72;;;26.17;54.82
54329;BME280;40710;51.120;13.136;2022-07-30T12:22:59;99442.72;;;25.47;57.09
54329;BME280;40710;51.120;13.136;2022-07-30T12:25:25;99445.94;;;24.95;56.08
54329;BME280;40710;51.120;13.136;2022-07-30T12:27:50;99452.19;;;25.43;56.46
54329;BME280;40710;51.120;13.136;2022-07-30T12:30:16;99427.09;;;26.43;54.66
54329;BME280;40710;51.120;13.136;2022-07-30T12:32:42;99429.44;;;26.84;53.10
54329;BME280;40710;51.120;13.136;2022-07-30T12:35:07;99433.59;;;26.34;54.34
54329;BME280;40710;51.120;13.136;2022-07-30T12:37:32;99420.97;;;27.02;52.49
54329;BME280;40710;51.120;13.136;2022-07-30T12:40:09;99428.28;;;26.78;53.70
54329;BME280;40710;51.120;13.136;2022-07-30T12:42:34;99420.25;;;26.55;53.79
54329;BME280;40710;51.120;13.136;2022-07-30T12:44:59;99431.38;;;27.05;52.42
54329;BME280;40710;51.120;13.136;2022-07-30T12:47:26;99423.16;;;27.58;51.96
54329;BME280;40710;51.120;13.136;2022-07-30T12:49:52;99427.38;;;27.31;52.28
54329;BME280;40710;51.120;13.136;2022-07-30T12:52:31;99452.56;;;24.51;58.63
54329;BME280;40710;51.120;13.136;2022-07-30T12:55:10;99463.13;;;24.44;60.17
54329;BME280;40710;51.120;13.136;2022-07-30T12:58:04;99420.50;;;26.69;54.15
54329;BME280;40710;51.120;13.136;2022-07-30T13:00:45;99424.63;;;26.56;55.13
54329;BME280;40710;51.120;13.136;2022-07-30T13:05:50;99431.72;;;26.19;55.17
54329;BME280;40710;51.120;13.136;2022-07-30T13:08:16;99436.13;;;26.50;54.90
54329;BME280;40710;51.120;13.136;2022-07-30T13:10:57;99439.16;;;25.86;56.19
54329;BME280;40710;51.120;13.136;2022-07-30T13:13:23;99436.19;;;26.04;55.04
54329;BME280;40710;51.120;13.136;2022-07-30T13:16:01;99418.25;;;26.87;53.77